Time;durP1;ratioP1;P1;durP2;ratioP2;P2;SDS_P1;SDS_P2;PMS_P1;PMS_P2;Temp;Humidity;BMP_temperature;BMP_pressure;BME280_temperature;BME280_humidity;BME280_pressure;Samples;Min_cycle;Max_cycle;Signal;HPM_P1;HPM_P2
2022/04/18 00:01:13;;;;;;;4.10;2.97;;;10.70;52.60;;;;;;5096818;28;20207;-81
2022/04/18 00:03:39;;;;;;;3.57;3.20;;;10.70;51.60;;;;;;5092144;28;20207;-82
2022/04/18 00:06:04;;;;;;;3.80;3.20;;;10.80;51.20;;;;;;5089159;28;20205;-81
2022/04/18 00:08:30;;;;;;;3.30;3.00;;;10.80;50.40;;;;;;5092096;28;20184;-81
2022/04/18 00:10:56;;;;;;;3.93;3.20;;;10.80;49.50;;;;;;5089484;28;20208;-81
2022/04/18 00:13:21;;;;;;;4.23;3.33;;;10.90;48.90;;;;;;5088177;28;20187;-81
2022/04/18 00:15:47;;;;;;;3.77;3.40;;;10.90;47.70;;;;;;5089893;28;20697;-81
2022/04/18 00:18:13;;;;;;;3.37;3.17;;;11.00;47.70;;;;;;5092489;28;20207;-81
2022/04/18 00:20:39;;;;;;;4.20;3.73;;;11.10;47.80;;;;;;5085977;28;20208;-82
2022/04/18 00:23:04;;;;;;;3.87;3.23;;;11.00;47.60;;;;;;5103912;28;20663;-81
2022/04/18 00:25:30;;;;;;;3.30;3.00;;;11.00;46.30;;;;;;5099572;28;20207;-81
2022/04/18 00:27:56;;;;;;;3.50;3.20;;;11.10;46.80;;;;;;5094134;28;20329;-81
2022/04/18 00:30:21;;;;;;;3.40;3.10;;;11.10;46.60;;;;;;5091375;28;20222;-81
2022/04/18 00:32:47;;;;;;;4.00;3.13;;;11.10;47.10;;;;;;5096072;28;20213;-81
2022/04/18 00:35:13;;;;;;;3.50;2.87;;;11.00;48.20;;;;;;5096022;28;20212;-81
2022/04/18 00:37:40;;;;;;;3.73;2.90;;;11.00;47.50;;;;;;5094146;28;20195;-81
2022/04/18 00:40:07;;;;;;;3.87;3.00;;;11.00;48.00;;;;;;5092481;28;20220;-81
2022/04/18 00:42:33;;;;;;;5.83;3.20;;;11.10;48.90;;;;;;5093472;28;20187;-81
2022/04/18 00:45:00;;;;;;;3.50;3.00;;;11.10;48.90;;;;;;5091065;28;20212;-81
2022/04/18 00:47:26;;;;;;;4.17;3.20;;;11.20;49.20;;;;;;5085793;28;20191;-81
2022/04/18 00:49:51;;;;;;;3.23;2.93;;;11.20;47.90;;;;;;5092938;28;20187;-81
2022/04/18 00:52:17;;;;;;;3.13;2.83;;;11.30;47.90;;;;;;5077050;28;20206;-81
2022/04/18 00:54:44;;;;;;;3.20;2.90;;;11.30;48.30;;;;;;5092543;28;20192;-81
2022/04/18 00:57:12;;;;;;;4.03;3.00;;;11.20;48.60;;;;;;5085403;28;20204;-81
2022/04/18 00:59:38;;;;;;;3.33;3.03;;;11.10;49.20;;;;;;5087046;28;20201;-81
2022/04/18 01:02:05;;;;;;;3.50;3.20;;;10.90;49.60;;;;;;5096255;28;20396;-81
2022/04/18 01:04:32;;;;;;;3.40;3.10;;;10.70;50.80;;;;;;5089463;28;20202;-81
2022/04/18 01:07:02;;;;;;;3.40;3.10;;;10.60;51.50;;;;;;5092541;28;20184;-81
2022/04/18 01:09:28;;;;;;;3.63;3.33;;;10.40;51.70;;;;;;5091358;28;20742;-81
2022/04/18 01:11:54;;;;;;;3.53;3.23;;;10.40;52.40;;;;;;5083639;28;20278;-81
2022/04/18 01:14:19;;;;;;;3.43;3.13;;;10.30;52.80;;;;;;5090355;28;20201;-80
2022/04/18 01:16:45;;;;;;;3.90;3.60;;;10.50;51.30;;;;;;5092080;28;20210;-80
2022/04/18 01:19:11;;;;;;;3.83;3.40;;;10.40;52.00;;;;;;5107031;28;21139;-80
2022/04/18 01:21:37;;;;;;;3.50;3.20;;;10.10;53.00;;;;;;5113130;22;20235;-85
2022/04/18 01:28:58;;;;;;;3.63;3.00;;;10.00;52.90;;;;;;5095588;28;20203;-82
2022/04/18 01:29:32;;;;;;;3.27;2.87;;;9.80;53.90;;;;;;5099680;28;20279;-83
2022/04/18 01:31:57;;;;;;;3.40;3.10;;;9.70;53.70;;;;;;5086432;28;20216;-82
2022/04/18 01:34:23;;;;;;;3.57;3.27;;;9.60;54.40;;;;;;5085699;28;20187;-83
2022/04/18 01:36:49;;;;;;;4.30;3.07;;;9.70;52.80;;;;;;5090913;28;20211;-82
2022/04/18 01:39:14;;;;;;;3.40;3.03;;;9.70;53.40;;;;;;5092857;28;20309;-82
2022/04/18 01:41:40;;;;;;;3.70;3.30;;;9.80;52.50;;;;;;5090903;28;20222;-82
2022/04/18 01:44:06;;;;;;;3.47;3.17;;;9.70;52.60;;;;;;5097113;28;20211;-82
2022/04/18 01:46:32;;;;;;;3.77;3.40;;;9.70;52.50;;;;;;5081413;28;20633;-82
2022/04/18 01:48:57;;;;;;;3.87;3.10;;;9.70;52.40;;;;;;5070171;28;20195;-82
2022/04/18 01:51:23;;;;;;;3.43;3.10;;;9.80;52.10;;;;;;5090069;28;20281;-82
2022/04/18 01:53:49;;;;;;;3.40;3.10;;;9.80;52.30;;;;;;5089236;28;20204;-82
2022/04/18 01:56:15;;;;;;;3.93;3.27;;;9.90;51.80;;;;;;5085146;28;20733;-82
2022/04/18 01:58:40;;;;;;;4.93;3.30;;;10.00;52.00;;;;;;5085563;28;20195;-82
2022/04/18 02:01:06;;;;;;;3.50;3.20;;;10.00;51.20;;;;;;5086449;28;20203;-82
2022/04/18 02:03:33;;;;;;;3.60;3.30;;;10.00;51.00;;;;;;5072028;28;20180;-82
2022/04/18 02:05:59;;;;;;;4.50;3.40;;;9.90;51.60;;;;;;5085140;28;20186;-82
2022/04/18 02:08:26;;;;;;;3.70;3.07;;;9.70;52.20;;;;;;5079980;28;20653;-82
2022/04/18 02:10:52;;;;;;;4.17;3.30;;;9.80;52.20;;;;;;5085801;28;20290;-82
2022/04/18 02:13:19;;;;;;;4.07;3.07;;;9.80;52.40;;;;;;5083837;28;20218;-82
2022/04/18 02:15:45;;;;;;;3.63;3.30;;;9.90;52.70;;;;;;5095552;28;20170;-82
2022/04/18 02:18:10;;;;;;;3.87;3.00;;;9.80;51.30;;;;;;5094331;28;20194;-82
2022/04/18 02:20:36;;;;;;;3.53;3.23;;;9.70;51.50;;;;;;5089857;28;20223;-82
2022/04/18 02:23:02;;;;;;;3.97;3.23;;;9.50;52.50;;;;;;5069973;28;20194;-82
2022/04/18 02:25:27;;;;;;;4.00;3.40;;;9.40;54.40;;;;;;5083293;28;20233;-82
2022/04/18 02:27:53;;;;;;;5.43;3.30;;;9.30;54.80;;;;;;5084844;28;20237;-82
2022/04/18 02:30:19;;;;;;;3.53;3.23;;;9.10;54.60;;;;;;5083988;28;20187;-82
2022/04/18 02:32:47;;;;;;;3.73;3.07;;;9.20;54.50;;;;;;5081515;28;20557;-82
2022/04/18 02:35:14;;;;;;;4.20;3.23;;;9.20;54.00;;;;;;5088435;28;20183;-82
2022/04/18 02:37:39;;;;;;;3.70;3.40;;;9.20;53.90;;;;;;5089778;28;20191;-82
2022/04/18 02:40:07;;;;;;;4.10;3.17;;;9.10;54.70;;;;;;5088899;28;20212;-82
2022/04/18 02:42:32;;;;;;;4.13;3.10;;;9.00;55.20;;;;;;5089124;28;20195;-82
2022/04/18 02:44:58;;;;;;;3.43;3.13;;;8.80;56.20;;;;;;5092107;28;20206;-82
2022/04/18 02:47:23;;;;;;;3.50;3.20;;;8.80;56.60;;;;;;5085362;28;20199;-82
2022/04/18 02:49:52;;;;;;;3.53;3.23;;;8.90;56.40;;;;;;5088112;28;20186;-82
2022/04/18 02:52:18;;;;;;;3.50;3.20;;;9.10;56.20;;;;;;5089961;28;20600;-82
2022/04/18 02:54:44;;;;;;;3.77;3.03;;;9.30;56.10;;;;;;5088319;28;20278;-82
2022/04/18 02:57:11;;;;;;;3.97;3.57;;;9.60;54.80;;;;;;5091862;28;20218;-83
2022/04/18 02:59:37;;;;;;;3.57;3.27;;;9.50;53.90;;;;;;5084119;28;20180;-82
2022/04/18 03:02:03;;;;;;;4.23;3.30;;;9.50;54.10;;;;;;5102938;28;20196;-83
2022/04/18 03:04:29;;;;;;;4.43;3.53;;;9.20;55.60;;;;;;5106497;28;20275;-82
2022/04/18 03:06:55;;;;;;;3.83;2.93;;;9.00;56.60;;;;;;5097992;28;20273;-82
2022/04/18 03:09:20;;;;;;;3.60;3.30;;;9.00;56.20;;;;;;5102625;28;20197;-82
2022/04/18 03:11:46;;;;;;;4.67;3.37;;;9.10;56.50;;;;;;5111691;28;20280;-82
2022/04/18 03:14:12;;;;;;;3.87;3.27;;;9.20;55.90;;;;;;5092061;28;20197;-82
2022/04/18 03:16:38;;;;;;;4.07;3.30;;;9.20;55.20;;;;;;5084907;28;20218;-82
2022/04/18 03:19:03;;;;;;;4.40;3.53;;;9.20;55.00;;;;;;5073792;28;20187;-82
2022/04/18 03:21:29;;;;;;;3.77;3.40;;;9.10;55.30;;;;;;5086918;28;20580;-82
2022/04/18 03:23:55;;;;;;;2.90;2.70;;;9.10;55.40;;;;;;5088215;28;20242;-82
2022/04/18 03:26:21;;;;;;;4.00;3.50;;;9.20;55.50;;;;;;5083748;28;20274;-82
2022/04/18 03:28:46;;;;;;;3.80;3.43;;;9.30;55.20;;;;;;5086217;28;20192;-82
2022/04/18 03:31:12;;;;;;;3.50;3.20;;;9.40;54.40;;;;;;5083224;28;20303;-82
2022/04/18 03:33:39;;;;;;;4.37;3.63;;;9.60;54.50;;;;;;5065910;28;20274;-82
2022/04/18 03:41:33;;;;;;;3.93;3.40;;;9.50;53.80;;;;;;5087845;28;20264;-82
2022/04/18 03:43:59;;;;;;;3.73;3.30;;;9.30;54.80;;;;;;5074684;28;20219;-82
2022/04/18 03:46:24;;;;;;;4.00;3.70;;;9.20;54.90;;;;;;5089902;28;20192;-82
2022/04/18 03:48:50;;;;;;;3.90;3.60;;;9.10;55.40;;;;;;5088194;28;20324;-82
2022/04/18 03:51:15;;;;;;;4.13;3.73;;;9.10;55.10;;;;;;5091436;28;20203;-82
2022/04/18 03:53:41;;;;;;;4.03;3.63;;;9.20;55.30;;;;;;5088782;28;20234;-82
2022/04/18 03:56:07;;;;;;;5.00;3.63;;;9.20;54.70;;;;;;5083905;28;20252;-82
2022/04/18 03:58:32;;;;;;;3.77;3.27;;;9.30;54.40;;;;;;5088312;28;20187;-82
2022/04/18 04:00:58;;;;;;;6.17;3.60;;;9.20;54.30;;;;;;5081975;28;20788;-82
2022/04/18 04:03:26;;;;;;;3.87;3.47;;;9.10;54.70;;;;;;5090843;28;20206;-82
2022/04/18 04:05:53;;;;;;;3.97;3.57;;;8.90;55.60;;;;;;5095422;28;20187;-82
2022/04/18 04:08:22;;;;;;;4.23;3.40;;;8.70;56.10;;;;;;5096234;28;20467;-82
2022/04/18 04:10:51;;;;;;;3.87;3.23;;;8.80;56.40;;;;;;5088688;28;20434;-82
2022/04/18 04:13:17;;;;;;;5.07;3.97;;;8.70;56.20;;;;;;5083095;28;20188;-82
2022/04/18 04:15:43;;;;;;;4.27;3.80;;;8.60;56.90;;;;;;5067760;28;20733;-82
2022/04/18 04:18:09;;;;;;;3.87;3.50;;;8.40;57.20;;;;;;5086866;28;20227;-82
2022/04/18 04:20:36;;;;;;;4.10;3.80;;;8.30;58.30;;;;;;5086315;28;20314;-82
2022/04/18 04:23:02;;;;;;;3.70;3.40;;;8.10;58.80;;;;;;5086253;28;20210;-82
2022/04/18 04:25:27;;;;;;;3.77;3.47;;;8.10;59.00;;;;;;5083297;28;20689;-82
2022/04/18 04:27:53;;;;;;;3.70;3.23;;;8.20;58.40;;;;;;5082587;28;20218;-82
2022/04/18 04:30:19;;;;;;;4.00;3.60;;;8.30;57.60;;;;;;5084410;28;20719;-82
2022/04/18 04:32:44;;;;;;;4.23;3.57;;;8.40;57.00;;;;;;5079161;28;20192;-82
2022/04/18 04:35:10;;;;;;;3.70;3.40;;;8.40;57.60;;;;;;5087687;28;20191;-82
2022/04/18 04:37:36;;;;;;;3.53;3.23;;;8.30;58.20;;;;;;5101585;28;20179;-82
2022/04/18 04:40:03;;;;;;;4.00;3.30;;;8.40;58.30;;;;;;5100331;28;20218;-82
2022/04/18 04:42:28;;;;;;;5.07;3.90;;;8.30;58.40;;;;;;5093614;28;20237;-82
2022/04/18 04:44:54;;;;;;;3.70;3.40;;;8.10;58.80;;;;;;5092684;28;20832;-82
2022/04/18 04:47:20;;;;;;;3.60;3.30;;;7.90;60.00;;;;;;5092177;28;20191;-82
2022/04/18 04:49:45;;;;;;;3.93;3.63;;;7.70;60.40;;;;;;5097847;28;20187;-81
2022/04/18 04:52:11;;;;;;;4.10;3.43;;;7.90;59.90;;;;;;5081094;28;20707;-83
2022/04/18 04:54:37;;;;;;;3.43;3.13;;;8.10;59.60;;;;;;5082778;28;20239;-83
2022/04/18 04:57:03;;;;;;;4.40;3.60;;;8.30;59.20;;;;;;5097094;28;20212;-82
2022/04/18 04:59:28;;;;;;;5.63;3.40;;;8.50;58.20;;;;;;5083505;28;20196;-82
2022/04/18 05:01:54;;;;;;;4.60;3.73;;;8.50;57.30;;;;;;5085041;28;20223;-82
2022/04/18 05:04:22;;;;;;;3.97;3.20;;;8.30;57.90;;;;;;5099099;28;20218;-83
2022/04/18 05:06:48;;;;;;;4.70;3.77;;;8.30;58.30;;;;;;5087311;28;20215;-82
2022/04/18 05:09:14;;;;;;;4.23;3.83;;;8.20;58.30;;;;;;5087535;28;20187;-83
2022/04/18 05:11:39;;;;;;;3.77;3.43;;;8.00;58.30;;;;;;5093081;28;20244;-83
2022/04/18 05:14:05;;;;;;;4.07;3.67;;;8.10;59.00;;;;;;5096591;28;20194;-82
2022/04/18 05:16:30;;;;;;;3.80;3.50;;;8.10;58.80;;;;;;5093622;28;20243;-81
2022/04/18 05:18:56;;;;;;;5.00;3.70;;;8.10;58.70;;;;;;5075005;28;20313;-81
2022/04/18 05:21:22;;;;;;;4.50;3.73;;;8.10;59.00;;;;;;5090906;28;20231;-82
2022/04/18 05:23:48;;;;;;;4.17;3.60;;;8.10;59.60;;;;;;5082813;28;20245;-81
2022/04/18 05:26:13;;;;;;;4.10;3.70;;;8.10;59.50;;;;;;5086025;28;20180;-82
2022/04/18 05:28:41;;;;;;;8.70;3.80;;;8.30;59.50;;;;;;5078172;28;20194;-82
2022/04/18 05:31:07;;;;;;;6.63;3.57;;;8.40;57.90;;;;;;5074290;28;20688;-82
2022/04/18 05:33:33;;;;;;;3.77;3.47;;;8.20;58.70;;;;;;5092047;28;20193;-82
2022/04/18 05:35:58;;;;;;;4.20;3.70;;;8.10;57.60;;;;;;5092341;28;20241;-82
2022/04/18 05:38:24;;;;;;;5.63;3.63;;;8.10;57.60;;;;;;5092733;28;20190;-82
2022/04/18 05:40:50;;;;;;;3.70;3.23;;;8.20;58.00;;;;;;5091414;28;20406;-81
2022/04/18 05:43:17;;;;;;;4.10;3.70;;;8.20;58.00;;;;;;5085777;28;20187;-81
2022/04/18 05:45:43;;;;;;;5.13;3.80;;;8.30;57.00;;;;;;5100064;28;20225;-85
2022/04/18 05:48:09;;;;;;;4.07;3.67;;;8.30;57.00;;;;;;5099591;28;20203;-83
2022/04/18 05:50:35;;;;;;;4.50;3.87;;;8.30;57.70;;;;;;5090761;28;20202;-84
2022/04/18 05:53:01;;;;;;;4.77;3.80;;;8.30;56.80;;;;;;5092453;28;20271;-84
2022/04/18 05:55:26;;;;;;;4.93;4.10;;;8.30;56.50;;;;;;5100290;28;20192;-84
2022/04/18 05:57:52;;;;;;;4.20;3.80;;;8.30;56.90;;;;;;5094087;28;20192;-82
2022/04/18 06:00:19;;;;;;;4.27;3.80;;;8.30;56.30;;;;;;5109292;28;20187;-82
2022/04/18 06:02:45;;;;;;;6.33;4.10;;;8.30;56.20;;;;;;5122501;28;20182;-82
2022/04/18 06:05:11;;;;;;;5.33;3.47;;;8.40;56.20;;;;;;5091341;28;20249;-82
2022/04/18 06:07:36;;;;;;;4.80;3.80;;;8.30;56.30;;;;;;5064862;28;20287;-82
2022/04/18 06:10:06;;;;;;;4.00;3.60;;;8.30;55.40;;;;;;5074888;28;20630;-82
2022/04/18 06:12:31;;;;;;;3.70;3.40;;;8.40;55.30;;;;;;5096036;28;20187;-82
2022/04/18 06:14:57;;;;;;;3.80;3.43;;;8.40;55.30;;;;;;5091096;28;20227;-82
2022/04/18 06:17:23;;;;;;;6.17;3.67;;;8.50;53.80;;;;;;5094694;28;20651;-82
2022/04/18 06:19:49;;;;;;;4.13;3.73;;;8.60;53.70;;;;;;5092138;28;20202;-82
2022/04/18 06:22:16;;;;;;;4.37;3.87;;;8.70;54.30;;;;;;5094513;28;20219;-82
2022/04/18 06:24:42;;;;;;;4.20;3.80;;;8.80;52.60;;;;;;5098407;28;20700;-83
2022/04/18 06:27:08;;;;;;;3.87;3.50;;;8.90;52.60;;;;;;5094619;28;20187;-83
2022/04/18 06:29:33;;;;;;;4.33;3.70;;;9.00;52.20;;;;;;5095441;28;20186;-82
2022/04/18 06:31:59;;;;;;;6.10;3.63;;;9.00;50.20;;;;;;5074614;28;20259;-82
2022/04/18 06:34:30;;;;;;;4.77;3.80;;;9.00;50.20;;;;;;5094656;28;20227;-83
2022/04/18 06:36:56;;;;;;;3.50;3.30;;;9.00;50.40;;;;;;5095292;28;20187;-82
2022/04/18 06:39:22;;;;;;;4.87;3.60;;;8.90;50.30;;;;;;5093282;28;20193;-82
2022/04/18 06:41:47;;;;;;;5.47;3.77;;;9.10;50.60;;;;;;5088714;28;20213;-82
2022/04/18 06:44:13;;;;;;;3.77;3.47;;;9.00;49.90;;;;;;5099638;28;20207;-82
2022/04/18 06:46:38;;;;;;;3.73;3.43;;;9.10;50.20;;;;;;5092405;28;20187;-83
2022/04/18 06:49:04;;;;;;;3.53;3.23;;;9.20;50.40;;;;;;5082990;28;20192;-82
2022/04/18 06:51:30;;;;;;;4.20;3.77;;;9.20;49.30;;;;;;5084612;28;20211;-83
2022/04/18 06:53:55;;;;;;;6.87;4.40;;;9.40;49.90;;;;;;5085672;28;20254;-82
2022/04/18 06:59:05;;;;;;;4.47;3.83;;;9.60;49.60;;;;;;5100587;28;20225;-83
2022/04/18 07:01:31;;;;;;;4.57;4.03;;;9.70;48.60;;;;;;5096442;28;20207;-83
2022/04/18 07:03:57;;;;;;;3.80;3.50;;;9.80;47.80;;;;;;5095512;28;20290;-82
2022/04/18 07:06:23;;;;;;;4.03;3.50;;;9.90;47.80;;;;;;5095642;28;20194;-82
2022/04/18 07:08:50;;;;;;;4.63;3.87;;;9.90;47.80;;;;;;5087884;28;20203;-82
2022/04/18 07:11:15;;;;;;;4.07;3.70;;;10.10;47.80;;;;;;5092255;28;20199;-82
2022/04/18 07:13:41;;;;;;;4.13;3.60;;;10.30;47.80;;;;;;5087683;28;20669;-82
2022/04/18 07:16:07;;;;;;;4.57;4.20;;;10.30;47.50;;;;;;5093996;28;20191;-83
2022/04/18 07:18:34;;;;;;;4.27;3.87;;;10.40;47.60;;;;;;5091901;28;20304;-83
2022/04/18 07:21:00;;;;;;;4.03;3.63;;;10.50;46.60;;;;;;5084239;28;20258;-83
2022/04/18 07:23:25;;;;;;;4.07;3.57;;;10.50;45.90;;;;;;5089959;28;20190;-83
2022/04/18 07:25:51;;;;;;;4.33;3.93;;;10.60;46.50;;;;;;5073867;28;20246;-82
2022/04/18 07:28:17;;;;;;;7.37;3.40;;;10.60;46.10;;;;;;5090524;28;20206;-83
2022/04/18 07:30:42;;;;;;;6.27;3.83;;;10.70;46.20;;;;;;5090679;28;20207;-82
2022/04/18 07:33:10;;;;;;;5.37;3.70;;;10.90;46.10;;;;;;5089644;28;20198;-82
2022/04/18 07:35:35;;;;;;;4.10;3.70;;;11.00;46.70;;;;;;5088721;28;20206;-83
2022/04/18 07:40:46;;;;;;;3.97;3.43;;;11.30;45.10;;;;;;5089798;28;20280;-83
2022/04/18 07:43:11;;;;;;;5.40;3.67;;;11.40;44.20;;;;;;5091102;28;20641;-83
2022/04/18 07:45:37;;;;;;;5.00;4.17;;;11.50;44.40;;;;;;5088155;28;20573;-83
2022/04/18 07:48:05;;;;;;;3.73;3.40;;;11.50;43.80;;;;;;5089443;28;20208;-83
2022/04/18 07:53:15;;;;;;;4.20;3.83;;;11.60;44.00;;;;;;5087530;28;20178;-83
2022/04/18 07:55:40;;;;;;;4.43;3.97;;;11.70;44.10;;;;;;5100749;28;20645;-82
2022/04/18 07:58:06;;;;;;;10.87;4.57;;;11.90;43.70;;;;;;5080780;28;20188;-83
2022/04/18 08:00:32;;;;;;;6.53;4.07;;;12.00;43.90;;;;;;5084891;28;20216;-83
2022/04/18 08:02:57;;;;;;;4.37;3.97;;;12.10;44.10;;;;;;5084799;28;20199;-83
2022/04/18 08:05:23;;;;;;;5.70;3.97;;;12.20;43.10;;;;;;5085648;28;20288;-83
2022/04/18 08:07:49;;;;;;;4.77;4.23;;;12.30;43.40;;;;;;5088490;28;20291;-82
2022/04/18 08:10:14;;;;;;;4.30;3.93;;;12.50;43.10;;;;;;5087522;28;20187;-83
2022/04/18 08:12:40;;;;;;;4.70;4.23;;;12.60;41.50;;;;;;5086282;28;20216;-83
2022/04/18 08:15:08;;;;;;;4.23;3.83;;;12.80;41.30;;;;;;5088949;28;20193;-83
2022/04/18 08:17:34;;;;;;;4.93;4.30;;;12.70;41.40;;;;;;5070771;28;20187;-82
2022/04/18 08:20:00;;;;;;;4.67;4.27;;;12.80;41.10;;;;;;5067350;28;20535;-82
2022/04/18 08:22:26;;;;;;;4.27;3.93;;;12.60;41.60;;;;;;5084608;28;20216;-83
2022/04/18 08:24:51;;;;;;;4.60;4.07;;;12.70;41.30;;;;;;5086267;28;20204;-83
2022/04/18 08:27:17;;;;;;;4.67;4.27;;;12.90;41.10;;;;;;5086442;28;20307;-83
2022/04/18 08:29:43;;;;;;;4.77;4.20;;;13.10;41.00;;;;;;5085367;28;20183;-84
2022/04/18 08:32:09;;;;;;;4.67;4.27;;;13.00;40.50;;;;;;5082904;28;20208;-83
2022/04/18 08:34:35;;;;;;;4.63;4.10;;;13.30;40.40;;;;;;5085341;28;20485;-84
2022/04/18 08:37:00;;;;;;;4.27;3.87;;;13.30;40.00;;;;;;5087368;28;20680;-83
2022/04/18 08:39:27;;;;;;;4.20;3.83;;;13.60;39.70;;;;;;5085933;28;20194;-84
2022/04/18 08:41:57;;;;;;;4.87;4.47;;;13.70;39.60;;;;;;5099205;28;20222;-81
2022/04/18 08:44:28;;;;;;;4.77;3.80;;;13.70;39.70;;;;;;5104693;28;20306;-81
2022/04/18 08:46:56;;;;;;;4.47;4.00;;;13.80;39.90;;;;;;5085158;28;20194;-84
2022/04/18 08:54:52;;;;;;;3.83;3.43;;;14.30;38.60;;;;;;5085481;28;20662;-83
2022/04/18 08:57:18;;;;;;;6.93;4.10;;;14.50;37.20;;;;;;5065888;28;20203;-83
2022/04/18 08:59:44;;;;;;;5.13;4.50;;;14.70;37.10;;;;;;5090776;28;20635;-83
2022/04/18 09:02:09;;;;;;;10.00;4.60;;;14.60;37.50;;;;;;5085338;28;20769;-83
2022/04/18 09:04:35;;;;;;;4.50;4.10;;;14.90;37.80;;;;;;5083427;28;20970;-84
2022/04/18 09:07:12;;;;;;;5.47;4.43;;;15.10;36.50;;;;;;5082762;28;20708;-83
2022/04/18 09:09:39;;;;;;;4.97;4.13;;;15.00;36.20;;;;;;5083276;28;20184;-83
2022/04/18 09:12:26;;;;;;;5.63;4.33;;;14.90;36.80;;;;;;5085695;28;20553;-84
2022/04/18 09:14:52;;;;;;;4.87;4.33;;;15.10;37.00;;;;;;5086070;28;20183;-83
2022/04/18 09:17:29;;;;;;;4.53;3.87;;;15.10;36.40;;;;;;5086841;28;20363;-84
2022/04/18 09:20:12;;;;;;;5.73;4.10;;;15.20;37.60;;;;;;5075267;28;20558;-83
2022/04/18 09:22:47;;;;;;;5.70;4.07;;;15.30;34.80;;;;;;5088389;28;20540;-83
2022/04/18 09:25:22;;;;;;;5.07;4.57;;;15.70;35.00;;;;;;5084541;28;20219;-84
2022/04/18 09:27:58;;;;;;;4.10;3.70;;;15.80;34.40;;;;;;5084308;28;20191;-84
2022/04/18 09:30:30;;;;;;;5.00;4.07;;;15.80;34.30;;;;;;5084118;28;20719;-83
2022/04/18 09:33:06;;;;;;;5.40;3.83;;;15.90;34.90;;;;;;5086444;28;20189;-82
2022/04/18 09:35:33;;;;;;;4.60;4.20;;;16.20;33.80;;;;;;5087185;28;20675;-84
2022/04/18 09:38:01;;;;;;;4.70;4.27;;;16.20;33.80;;;;;;5084339;28;20204;-84
2022/04/18 09:40:30;;;;;;;4.37;3.93;;;16.30;33.60;;;;;;5085356;28;20235;-84
2022/04/18 09:42:56;;;;;;;5.97;4.13;;;16.30;33.10;;;;;;5088721;28;20179;-83
2022/04/18 09:45:23;;;;;;;4.20;3.80;;;16.30;32.80;;;;;;5097805;28;20212;-83
2022/04/18 09:47:57;;;;;;;6.40;4.47;;;16.60;32.90;;;;;;5086214;28;20562;-83
2022/04/18 09:53:20;;;;;;;4.40;4.00;;;16.80;32.60;;;;;;5088816;28;20271;-84
2022/04/18 09:55:47;;;;;;;4.50;4.10;;;16.70;32.00;;;;;;5084335;28;20680;-84
2022/04/18 09:58:13;;;;;;;4.57;3.63;;;16.90;32.40;;;;;;5085208;28;20192;-83
2022/04/18 10:00:40;;;;;;;4.73;3.90;;;17.20;31.60;;;;;;5085155;28;20206;-83
2022/04/18 10:03:07;;;;;;;6.03;3.80;;;17.50;31.00;;;;;;5086876;28;20194;-84
2022/04/18 10:05:33;;;;;;;5.77;4.23;;;17.50;31.10;;;;;;5086741;28;20203;-84
2022/04/18 10:08:04;;;;;;;4.40;4.00;;;17.40;31.80;;;;;;5074312;28;20180;-83
2022/04/18 10:10:34;;;;;;;5.97;4.70;;;17.40;33.20;;;;;;5084266;28;20193;-84
2022/04/18 10:13:02;;;;;;;4.43;3.93;;;17.80;31.50;;;;;;5086518;28;20361;-84
2022/04/18 10:15:27;;;;;;;5.37;4.03;;;18.00;30.40;;;;;;5086440;28;20342;-84
2022/04/18 10:17:54;;;;;;;7.17;4.60;;;18.20;31.00;;;;;;5085058;28;20219;-84
2022/04/18 10:20:50;;;;;;;4.37;3.97;;;18.40;30.40;;;;;;5085096;28;20222;-84
2022/04/18 10:23:22;;;;;;;4.40;3.83;;;18.50;29.10;;;;;;5085681;28;20187;-83
2022/04/18 10:26:12;;;;;;;3.93;3.60;;;18.20;29.80;;;;;;5084060;28;20209;-84
2022/04/18 10:28:42;;;;;;;4.20;3.90;;;18.20;30.70;;;;;;5087334;28;20186;-84
2022/04/18 10:31:16;;;;;;;4.70;4.30;;;18.50;30.40;;;;;;5067424;28;20217;-84
2022/04/18 10:33:44;;;;;;;4.30;3.90;;;18.70;29.50;;;;;;5088747;28;20584;-84
2022/04/18 10:36:10;;;;;;;4.73;3.90;;;18.90;29.80;;;;;;5091213;28;20187;-83
2022/04/18 10:38:37;;;;;;;3.70;3.47;;;19.00;29.10;;;;;;5097397;28;20193;-83
2022/04/18 10:41:36;;;;;;;4.10;3.60;;;18.90;29.10;;;;;;5098398;28;20205;-84
2022/04/18 10:44:08;;;;;;;3.83;3.53;;;19.00;28.70;;;;;;5097620;28;20200;-83
2022/04/18 10:46:55;;;;;;;4.37;3.40;;;19.00;28.40;;;;;;5100539;28;20189;-83
2022/04/18 10:49:27;;;;;;;4.43;4.03;;;19.30;28.80;;;;;;5086967;28;20232;-83
2022/04/18 10:51:54;;;;;;;5.97;3.83;;;19.50;28.30;;;;;;5097218;28;20199;-83
2022/04/18 10:54:23;;;;;;;4.22;3.80;;;20.10;27.90;;;;;;5098629;28;20364;-83
2022/04/18 10:56:54;;;;;;;4.45;4.10;;;20.40;28.40;;;;;;5096905;28;20187;-83
2022/04/18 10:59:30;;;;;;;4.40;4.00;;;20.40;27.20;;;;;;5086888;28;20407;-83
2022/04/18 11:02:01;;;;;;;4.88;4.03;;;20.70;27.10;;;;;;5092064;28;20295;-83
2022/04/18 11:04:46;;;;;;;4.55;3.75;;;20.10;27.20;;;;;;5083579;28;20253;-82
2022/04/18 11:07:12;;;;;;;4.03;3.72;;;20.20;27.30;;;;;;5088129;28;20175;-83
2022/04/18 11:09:44;;;;;;;3.88;3.58;;;20.20;27.00;;;;;;5087802;28;20192;-83
2022/04/18 11:12:17;;;;;;;4.00;3.70;;;20.10;27.40;;;;;;5096124;28;20214;-82
2022/04/18 11:14:51;;;;;;;4.45;4.05;;;20.10;27.70;;;;;;5095617;28;20194;-82
2022/04/18 11:17:40;;;;;;;4.43;4.00;;;20.10;27.20;;;;;;5090031;28;20194;-83
2022/04/18 11:20:35;;;;;;;4.45;3.95;;;19.90;27.30;;;;;;5074686;28;20194;-82
2022/04/18 11:23:27;;;;;;;4.10;3.80;;;20.30;27.40;;;;;;5087900;28;20198;-83
2022/04/18 11:25:55;;;;;;;4.03;3.70;;;20.80;27.50;;;;;;5097867;28;20222;-83
2022/04/18 11:28:21;;;;;;;4.13;3.70;;;21.10;26.80;;;;;;5109470;28;20208;-84
2022/04/18 11:30:46;;;;;;;5.00;4.03;;;21.00;26.70;;;;;;5099608;28;20198;-84
2022/04/18 11:33:12;;;;;;;4.45;4.05;;;20.60;27.10;;;;;;5090286;28;20191;-83
2022/04/18 11:35:38;;;;;;;4.40;4.00;;;20.90;27.00;;;;;;5088822;28;20185;-84
2022/04/18 11:38:09;;;;;;;4.80;4.07;;;21.10;27.10;;;;;;5096037;28;20183;-85
2022/04/18 11:40:40;;;;;;;3.80;3.50;;;21.10;26.60;;;;;;5099803;28;20230;-84
2022/04/18 11:43:13;;;;;;;3.75;3.40;;;21.00;26.40;;;;;;5078951;28;20197;-85
2022/04/18 11:45:39;;;;;;;4.40;4.00;;;21.10;26.50;;;;;;5097625;28;20203;-83
2022/04/18 11:48:06;;;;;;;4.65;4.20;;;21.60;26.40;;;;;;5094505;28;20191;-84
2022/04/18 11:50:36;;;;;;;4.72;3.72;;;21.50;26.10;;;;;;5090501;28;20222;-83
2022/04/18 11:53:07;;;;;;;3.83;3.40;;;21.30;26.60;;;;;;5090438;28;20216;-84
2022/04/18 11:55:44;;;;;;;4.78;4.25;;;21.30;25.90;;;;;;5087468;28;20653;-83
2022/04/18 11:58:11;;;;;;;4.90;4.50;;;21.60;25.40;;;;;;5092355;28;20183;-84
2022/04/18 12:08:51;;;;;;;5.18;3.60;;;22.30;25.10;;;;;;5101951;28;20256;-83
2022/04/18 12:11:16;;;;;;;4.55;4.15;;;22.40;24.80;;;;;;5088028;28;20803;-84
2022/04/18 12:13:43;;;;;;;4.20;3.88;;;22.50;24.70;;;;;;5093774;28;20265;-83
2022/04/18 12:16:09;;;;;;;4.97;4.55;;;22.70;24.40;;;;;;5097377;28;20653;-84
2022/04/18 12:18:35;;;;;;;4.85;4.45;;;22.30;25.50;;;;;;5084476;28;20185;-83
2022/04/18 12:21:01;;;;;;;4.70;4.30;;;22.00;25.00;;;;;;5094895;28;20219;-84
2022/04/18 12:23:27;;;;;;;4.60;4.20;;;21.70;26.30;;;;;;5098690;28;20187;-85
2022/04/18 12:25:59;;;;;;;4.47;3.78;;;21.50;26.40;;;;;;5090407;28;20226;-84
2022/04/18 12:28:30;;;;;;;4.97;4.07;;;21.30;27.00;;;;;;5089507;28;20241;-84
2022/04/18 12:30:56;;;;;;;4.30;3.83;;;21.30;27.10;;;;;;5097200;28;20273;-84
2022/04/18 12:33:27;;;;;;;4.90;4.32;;;22.10;26.30;;;;;;5112469;28;20204;-84
2022/04/18 12:35:54;;;;;;;5.20;4.20;;;22.70;25.70;;;;;;5095783;28;20199;-83
2022/04/18 12:38:31;;;;;;;4.50;4.20;;;23.10;25.60;;;;;;5082149;28;20179;-84
2022/04/18 12:40:59;;;;;;;4.57;4.07;;;23.20;24.90;;;;;;5062164;28;20677;-83
2022/04/18 12:43:29;;;;;;;4.97;4.57;;;23.30;24.90;;;;;;5098869;28;20238;-83
2022/04/18 12:46:12;;;;;;;4.57;4.18;;;23.20;25.40;;;;;;5093445;28;20199;-84
2022/04/18 12:48:38;;;;;;;4.50;4.20;;;23.30;24.60;;;;;;5093289;28;20526;-84
2022/04/18 12:51:06;;;;;;;5.18;4.68;;;22.80;25.30;;;;;;5074386;28;20236;-84
2022/04/18 12:53:48;;;;;;;4.80;4.40;;;22.80;25.30;;;;;;5070042;28;20189;-84
2022/04/18 12:56:20;;;;;;;6.35;4.07;;;23.40;24.70;;;;;;5088518;28;20187;-85
2022/04/18 12:59:06;;;;;;;7.00;5.32;;;23.70;24.70;;;;;;5095375;28;20245;-84
2022/04/18 13:01:36;;;;;;;5.05;4.55;;;23.70;25.10;;;;;;5088436;28;20234;-84
2022/04/18 13:04:17;;;;;;;4.80;4.40;;;23.70;24.90;;;;;;5087382;28;20808;-84
2022/04/18 13:06:43;;;;;;;5.57;5.15;;;23.40;24.90;;;;;;5087267;28;20189;-85
2022/04/18 13:09:10;;;;;;;5.85;4.88;;;23.50;25.20;;;;;;5066018;28;20187;-85
2022/04/18 13:11:43;;;;;;;6.68;4.40;;;23.30;25.00;;;;;;5083596;28;20217;-84
2022/04/18 13:14:14;;;;;;;5.32;4.80;;;23.20;25.30;;;;;;5092108;28;20218;-85
2022/04/18 13:16:43;;;;;;;4.90;4.50;;;23.50;24.90;;;;;;5098614;28;20605;-85
2022/04/18 13:19:14;;;;;;;6.13;4.78;;;23.90;25.00;;;;;;5094853;28;20297;-85
2022/04/18 13:21:41;;;;;;;5.10;4.70;;;24.10;24.70;;;;;;5091825;28;20219;-83
2022/04/18 13:24:09;;;;;;;5.10;4.70;;;23.90;24.50;;;;;;5098774;28;20203;-83
2022/04/18 13:26:36;;;;;;;9.55;5.50;;;24.10;24.80;;;;;;5066011;28;20196;-85